createdAt,value
2023-02-14T00:01:28.400Z,11.30
2023-02-14T00:06:32.436Z,14.15
2023-02-14T00:11:34.184Z,14.77
2023-02-14T00:16:35.893Z,13.75
2023-02-14T00:21:38.927Z,14.15
2023-02-14T00:26:41.246Z,15.57
2023-02-14T00:31:43.745Z,16.88
2023-02-14T00:36:46.053Z,16.55
2023-02-14T00:41:50.351Z,19.77
2023-02-14T00:46:51.906Z,16.77
2023-02-14T00:51:53.528Z,16.23
2023-02-14T00:56:55.071Z,15.02
2023-02-14T01:01:56.646Z,17.50
2023-02-14T01:06:58.220Z,16.90
2023-02-14T01:11:59.872Z,14.52
2023-02-14T01:17:01.431Z,15.20
2023-02-14T01:22:03.019Z,16.70
2023-02-14T01:27:04.626Z,19.73
2023-02-14T01:32:07.305Z,16.63
2023-02-14T01:37:08.917Z,19.48
2023-02-14T01:42:11.203Z,18.55
2023-02-14T01:47:15.639Z,23.90
2023-02-14T01:52:40.427Z,18.10
2023-02-14T01:57:54.452Z,16.83
2023-02-14T02:02:58.892Z,19.38
2023-02-14T02:08:01.304Z,19.85
2023-02-14T02:13:07.097Z,22.48
2023-02-14T02:18:20.397Z,19.70
2023-02-14T02:23:43.771Z,16.30
2023-02-14T02:28:51.377Z,17.48
2023-02-14T02:34:29.060Z,17.33
2023-02-14T02:39:45.985Z,19.10
2023-02-14T02:45:09.001Z,16.58
2023-02-14T02:50:32.846Z,19.33
2023-02-14T02:55:40.670Z,21.33
2023-02-14T03:00:43.274Z,16.80
2023-02-14T03:05:45.262Z,19.83
2023-02-14T03:10:53.531Z,19.98
2023-02-14T03:16:01.371Z,24.95
2023-02-14T03:21:35.586Z,21.65
2023-02-14T03:26:51.535Z,20.98
2023-02-14T03:32:25.394Z,18.85
2023-02-14T03:37:33.972Z,20.73
2023-02-14T03:42:52.880Z,22.90
2023-02-14T03:47:58.961Z,20.55
2023-02-14T03:53:02.679Z,13.87
2023-02-14T03:58:11.146Z,23.73
2023-02-14T04:03:15.146Z,24.65
2023-02-14T04:08:22.002Z,23.55
2023-02-14T04:18:25.016Z,21.42
2023-02-14T04:23:26.523Z,21.98
2023-02-14T04:28:28.079Z,25.48
2023-02-14T04:33:29.733Z,19.75
2023-02-14T04:38:32.563Z,21.65
2023-02-14T04:43:34.106Z,24.45
2023-02-14T04:48:35.669Z,23.85
2023-02-14T04:53:37.639Z,26.40
2023-02-14T04:58:39.235Z,26.98
2023-02-14T05:03:40.766Z,24.08
2023-02-14T05:08:42.296Z,24.30
2023-02-14T05:13:43.991Z,24.30
2023-02-14T05:18:45.523Z,27.15
2023-02-14T05:23:47.141Z,23.70
2023-02-14T05:28:48.732Z,24.92
2023-02-14T05:33:50.435Z,29.52
2023-02-14T05:38:51.965Z,24.35
2023-02-14T05:43:53.501Z,25.08
2023-02-14T05:48:55.047Z,29.00
2023-02-14T05:53:57.183Z,31.38
2023-02-14T05:58:58.721Z,30.85
2023-02-14T06:04:00.491Z,36.33
2023-02-14T06:09:02.152Z,31.85
2023-02-14T06:14:03.891Z,34.05
2023-02-14T06:19:05.628Z,34.58
2023-02-14T06:24:07.211Z,32.30
2023-02-14T06:29:08.851Z,29.73
2023-02-14T06:34:10.720Z,31.75
2023-02-14T06:39:12.304Z,32.78
2023-02-14T06:44:13.991Z,33.78
2023-02-14T06:49:15.571Z,37.65
2023-02-14T06:54:18.541Z,37.42
2023-02-14T06:59:20.065Z,32.42
2023-02-14T07:04:21.614Z,41.10
2023-02-14T07:09:23.508Z,39.58
2023-02-14T07:14:25.006Z,41.38
2023-02-14T07:19:26.656Z,38.17
2023-02-14T07:24:28.234Z,35.47
2023-02-14T07:29:29.787Z,42.60
2023-02-14T07:34:31.479Z,39.53
2023-02-14T07:39:33.078Z,35.63
2023-02-14T07:44:34.600Z,43.45
2023-02-14T07:49:36.785Z,34.20
2023-02-14T07:54:38.367Z,38.85
2023-02-14T07:59:39.888Z,37.63
2023-02-14T08:04:41.548Z,37.08
2023-02-14T08:09:43.099Z,33.63
2023-02-14T08:14:44.744Z,31.48
2023-02-14T08:19:46.318Z,27.80
2023-02-14T08:24:47.865Z,28.58
2023-02-14T08:29:49.538Z,30.15
2023-02-14T08:34:51.099Z,21.45
2023-02-14T08:39:52.823Z,24.90
2023-02-14T08:44:54.386Z,20.88
2023-02-14T08:49:55.942Z,26.25
2023-02-14T08:54:58.175Z,23.00
2023-02-14T08:59:59.726Z,25.20
2023-02-14T09:05:01.572Z,21.17
2023-02-14T09:10:07.045Z,21.95
2023-02-14T09:15:09.699Z,21.70
2023-02-14T09:20:13.175Z,19.13
2023-02-14T09:25:16.441Z,16.45
2023-02-14T09:30:18.070Z,22.88
2023-02-14T09:35:20.288Z,21.67
2023-02-14T09:40:22.097Z,20.85
2023-02-14T09:45:29.472Z,19.23
2023-02-14T09:50:37.056Z,23.65
2023-02-14T09:56:01.678Z,19.73
2023-02-14T10:01:28.031Z,17.67
2023-02-14T10:06:53.679Z,20.03
2023-02-14T10:11:59.340Z,19.30
2023-02-14T10:17:18.597Z,18.98
2023-02-14T10:22:26.726Z,20.67
2023-02-14T10:27:39.560Z,19.33
2023-02-14T10:32:50.351Z,19.38
2023-02-14T10:38:28.056Z,20.17
2023-02-14T10:43:57.683Z,17.58
2023-02-14T10:49:05.219Z,20.02
2023-02-14T10:54:27.031Z,17.13
2023-02-14T10:59:50.878Z,16.02
2023-02-14T11:04:52.949Z,17.60
2023-02-14T11:09:55.335Z,18.67
2023-02-14T11:15:14.550Z,16.63
2023-02-14T11:20:19.548Z,16.42
2023-02-14T11:25:24.481Z,15.73
2023-02-14T11:30:30.472Z,18.88
2023-02-14T11:35:32.972Z,18.43
2023-02-14T11:40:40.107Z,16.98
2023-02-14T11:45:44.890Z,17.90
2023-02-14T11:50:58.727Z,15.93
2023-02-14T11:56:00.598Z,17.63
2023-02-14T12:01:03.437Z,16.95
2023-02-14T12:06:05.794Z,17.70
2023-02-14T12:11:25.257Z,15.65
2023-02-14T12:16:35.244Z,13.85
2023-02-14T12:21:55.210Z,15.60
2023-02-14T12:27:28.067Z,17.30
2023-02-14T12:32:31.816Z,14.50
2023-02-14T12:38:04.647Z,14.35
2023-02-14T12:43:31.289Z,20.08
2023-02-14T12:48:57.418Z,14.43
2023-02-14T12:54:26.923Z,16.40
2023-02-14T12:59:56.787Z,16.27
2023-02-14T13:05:29.730Z,13.82
2023-02-14T13:11:02.221Z,14.88
2023-02-14T13:16:23.786Z,15.45
2023-02-14T13:21:30.761Z,15.05
2023-02-14T13:26:38.805Z,16.35
2023-02-14T13:31:41.974Z,15.05
2023-02-14T13:36:44.915Z,13.00
2023-02-14T13:41:46.907Z,16.98
2023-02-14T13:46:51.574Z,14.23
2023-02-14T13:51:56.487Z,14.85
2023-02-14T13:57:03.923Z,13.40
2023-02-14T14:02:29.952Z,16.65
2023-02-14T14:07:31.945Z,16.08
2023-02-14T14:12:33.498Z,17.50
2023-02-14T14:18:08.681Z,12.73
2023-02-14T14:23:35.329Z,13.52
2023-02-14T14:28:36.895Z,13.23
2023-02-14T14:33:38.549Z,15.60
2023-02-14T14:38:50.237Z,17.33
2023-02-14T14:43:51.843Z,12.95
2023-02-14T14:48:55.517Z,15.45
2023-02-14T14:54:01.053Z,13.15
2023-02-14T14:59:25.683Z,11.03
2023-02-14T15:04:35.599Z,13.32
2023-02-14T15:09:37.243Z,13.38
2023-02-14T15:14:43.421Z,12.85
2023-02-14T15:19:54.438Z,13.15
2023-02-14T15:24:57.912Z,12.20
2023-02-14T15:30:03.472Z,12.82
2023-02-14T15:35:06.756Z,13.13
2023-02-14T15:40:16.785Z,14.35
2023-02-14T15:45:27.821Z,13.90
2023-02-14T15:50:35.494Z,18.08
2023-02-14T15:55:37.201Z,14.80
2023-02-14T16:00:38.975Z,15.40
2023-02-14T16:05:47.547Z,14.23
2023-02-14T16:11:32.519Z,14.48
2023-02-14T16:17:01.829Z,16.63
2023-02-14T16:22:04.940Z,18.00
2023-02-14T16:27:06.462Z,14.55
2023-02-14T16:32:17.720Z,21.52
2023-02-14T16:37:24.750Z,20.23
2023-02-14T16:42:29.443Z,19.20
2023-02-14T16:47:31.044Z,19.60
2023-02-14T16:52:35.317Z,21.52
2023-02-14T16:57:40.984Z,20.65
2023-02-14T17:02:44.182Z,18.00
2023-02-14T17:07:46.144Z,22.40
2023-02-14T17:12:49.064Z,23.25
2023-02-14T17:17:54.347Z,19.70
2023-02-14T17:22:56.305Z,25.73
2023-02-14T17:27:57.825Z,18.02
2023-02-14T17:32:59.858Z,18.98
2023-02-14T17:38:01.674Z,22.05
2023-02-14T17:43:03.817Z,25.20
2023-02-14T17:48:05.606Z,23.27
2023-02-14T17:53:07.319Z,24.92
2023-02-14T17:58:08.928Z,22.45
2023-02-14T18:03:10.542Z,22.52
2023-02-14T18:08:12.194Z,25.30
2023-02-14T18:13:13.731Z,22.58
2023-02-14T18:18:15.483Z,26.02
2023-02-14T18:23:21.104Z,23.90
2023-02-14T18:28:25.222Z,26.38
2023-02-14T18:33:26.804Z,23.75
2023-02-14T18:38:28.555Z,23.30
2023-02-14T18:43:30.480Z,24.70
2023-02-14T18:48:32.660Z,30.60
2023-02-14T18:53:35.274Z,28.63
2023-02-14T18:58:36.969Z,26.63
2023-02-14T19:03:39.669Z,30.58
2023-02-14T19:08:41.745Z,25.05
2023-02-14T19:13:48.847Z,32.83
2023-02-14T19:18:51.002Z,29.35
2023-02-14T19:23:54.971Z,28.40
2023-02-14T19:28:58.303Z,28.80
2023-02-14T19:33:59.922Z,29.02
2023-02-14T19:39:01.760Z,26.30
2023-02-14T19:44:05.502Z,32.03
2023-02-14T19:49:07.159Z,30.13
2023-02-14T19:54:09.612Z,30.77
2023-02-14T19:59:11.943Z,32.67
2023-02-14T20:04:16.310Z,34.55
2023-02-14T20:09:19.051Z,32.63
2023-02-14T20:14:26.266Z,33.17
2023-02-14T20:19:31.098Z,34.15
2023-02-14T20:24:32.786Z,30.75
2023-02-14T20:29:34.396Z,33.05
2023-02-14T20:34:35.979Z,35.92
2023-02-14T20:39:38.208Z,32.58
2023-02-14T20:44:39.907Z,32.88
2023-02-14T20:49:41.543Z,33.28
2023-02-14T20:54:43.140Z,34.15
2023-02-14T20:59:44.709Z,38.03
2023-02-14T21:04:46.366Z,30.30
2023-02-14T21:09:48.016Z,34.42
2023-02-14T21:14:49.630Z,35.30
2023-02-14T21:19:51.188Z,31.88
2023-02-14T21:24:52.720Z,35.13
2023-02-14T21:29:54.587Z,34.85
2023-02-14T21:34:56.098Z,31.38
2023-02-14T21:39:57.683Z,37.88
2023-02-14T21:44:59.336Z,42.13
2023-02-14T21:50:00.878Z,43.17
2023-02-14T21:55:02.535Z,44.08
2023-02-14T22:00:05.075Z,41.50
2023-02-14T22:05:12.192Z,37.45
2023-02-14T22:10:13.765Z,36.85
2023-02-14T22:15:15.593Z,41.03
2023-02-14T22:20:17.414Z,42.33
2023-02-14T22:25:19.006Z,40.90
2023-02-14T22:30:21.028Z,40.97
2023-02-14T22:35:22.562Z,44.03
2023-02-14T22:40:24.080Z,45.53
2023-02-14T22:45:25.747Z,47.13
2023-02-14T22:50:27.364Z,45.88
2023-02-14T22:55:30.540Z,44.05
2023-02-14T23:00:32.078Z,45.42
2023-02-14T23:05:33.602Z,43.08
2023-02-14T23:10:35.176Z,44.40
2023-02-14T23:15:36.914Z,40.38
2023-02-14T23:20:38.433Z,40.95
2023-02-14T23:25:42.495Z,44.28
2023-02-14T23:30:44.030Z,37.63
2023-02-14T23:35:45.604Z,42.15
2023-02-14T23:40:47.110Z,41.22
2023-02-14T23:45:48.946Z,46.33
2023-02-14T23:50:50.470Z,46.03
2023-02-14T23:55:51.994Z,44.85
